Nearby METAR Reports

 

KHIF - Hill Afb/Ogden, Utah, USA
Distance from station: ENE 6mi, 9km
Updated: Mon, 18-Jun-2018 5:58pm MDT
Few Clouds
Few Clouds
 Wind from NW
Wind: NW 7 mph , 11 km/h
Temperature: 73°F , 23°C
Dew Point: 34°F , 1°C
Humidity: 23%
Barometer: 30.05 inHg , 1017.6 hPa
Clouds: Few Clouds
Visibility: 10 miles , 16 km
Cloud details: Few Clouds 7000 ft
2018/06/18 23:58 KHIF 182358Z 32006KT 10SM FEW070 23/01 A3005 RMK AO2A SLP127 T02270005 10228 20187 55001 $
KOGD - Ogden, Utah, USA
Distance from station: NNE 9mi, 14km
Updated: Mon, 18-Jun-2018 5:53pm MDT
Clear
Clear
 Wind from N
Wind: N 5 mph , 7 km/h
Temperature: 73°F , 23°C
Dew Point: 32°F , 0°C
Humidity: 22%
Barometer: 30.02 inHg , 1016.6 hPa
Clouds: Clear
Visibility: 10 miles , 16 km
2018/06/18 23:53 KOGD 182353Z 01004KT 10SM CLR 23/00 A3002 RMK AO2 SLP118 T02330000 10239 20194 56001 $
 
KSLC - Salt Lake City, Utah, USA
Distance from station: SSE 21mi, 34km
Updated: Mon, 18-Jun-2018 5:54pm MDT
Partly cloudy
Partly cloudy
 Wind from N
Wind: N 9 mph , 15 km/h
Temperature: 79°F , 26°C
Dew Point: 36°F , 2°C
Humidity: 21%
Barometer: 29.99 inHg , 1015.6 hPa
Clouds: Partly cloudy
Visibility: 10 miles , 16 km
Cloud details: Partly cloudy 9000 ft
Partly cloudy 12000 ft
Partly cloudy 20000 ft
2018/06/18 23:54 KSLC 182354Z 36008KT 10SM SCT090 SCT120 SCT200 26/02 A2999 RMK AO2 SLP108 CB DSNT N AND E T02610017 10261 20200 58000
KLGU - Logan, Utah, USA
Distance from station: NNE 50mi, 80km
Updated: Mon, 18-Jun-2018 5:51pm MDT
Clear
Clear
 Wind from SW
Wind: SW 13 mph , 20 km/h
Temperature: 73°F , 23°C
Dew Point: 36°F , 2°C
Humidity: 25%
Barometer: 30.02 inHg , 1016.6 hPa
Clouds: Clear
Visibility: 10 miles , 16 km
2018/06/18 23:51 KLGU 182351Z AUTO 22011KT 10SM CLR 23/02 A3002 RMK AO2 SLP125 6//// T02330017 52002
 
K36U - Heber/Russ Mcdon, Utah, USA
Distance from station: SE 53mi, 85km
Updated: Wed, 11-Oct-2017 6:50pm MDT
NOT Current
Clear
Clear
 Wind from SSW
Wind: SSW 10 mph , 17 km/h, Gust: 18 mph , 30 km/h
Temperature: 63°F , 17°C
Dew Point: 16°F , -9°C
Humidity: 16%
Barometer: 29.87 inHg , 1011.5 hPa
Clouds: Clear
Visibility: 10 miles , 16 km
2017/10/12 00:50 K36U 120050Z AUTO 21009G16KT 10SM CLR 17/M09 A2987 RMK AO2
KEVW - Evanston, Wyoming, USA
Distance from station: ENE 55mi, 89km
Updated: Mon, 18-Jun-2018 5:53pm MDT
Clear
Clear
 Wind from W
Wind: W 18 mph , 30 km/h, Gust: 28 mph , 44 km/h
Temperature: 63°F , 17°C
Dew Point: 37°F , 3°C
Humidity: 39%
Barometer: 30.13 inHg , 1020.3 hPa
Clouds: Clear
Visibility: 10 miles , 16 km
2018/06/18 23:53 KEVW 182353Z AUTO 27016G24KT 10SM CLR 17/03 A3013 RMK AO2 PK WND 27027/2329 SLP133 60003 T01720033 10183 20072 53006
 
KPVU - Provo Muni, Utah, USA
Distance from station: SSE 62mi, 100km
Updated: Mon, 18-Jun-2018 5:56pm MDT
Partly cloudy
Partly cloudy
 Wind from NW
Wind: NW 18 mph , 30 km/h
Temperature: 79°F , 26°C
Dew Point: 43°F , 6°C
Humidity: 28%
Barometer: 29.99 inHg , 1015.6 hPa
Clouds: Partly cloudy
Visibility: 10 miles , 16 km
Cloud details: Partly cloudy 12000 ft
2018/06/18 23:56 KPVU 182356Z 32016KT 10SM SCT120 26/06 A2999 RMK AO2 SLP104 T02560061 10267 20222 58002
KDPG - Dugway Prvg Grou, Utah, USA
Distance from station: SW 75mi, 121km
Updated: Mon, 18-Jun-2018 5:00pm MDT
NOT Current
Partly cloudy
Partly cloudy
 Wind from NNW
Wind: NNW 13 mph , 20 km/h, Gust: 18 mph , 30 km/h
Temperature: 79°F , 26°C
Dew Point: 27°F , -3°C
Humidity: 15%
Barometer: 29.98 inHg , 1015.2 hPa
Clouds: Partly cloudy
Visibility: 40 miles , 64 km
Cloud details: Partly cloudy 9000 ft
2018/06/18 23:00 KDPG 182300Z 33011G16KT 40SM SCT090 26/M03 A2998 RMK SLP107 T02591033 LAST
 
KENV - Wendover (aut), Utah, USA
Distance from station: WSW 105mi, 169km
Updated: Mon, 18-Jun-2018 6:31pm MDT
Partly cloudy
Partly cloudy
 Wind from WNW
Wind: WNW 18 mph , 30 km/h, Gust: 26 mph , 43 km/h
Temperature: 77°F , 25°C
Dew Point: 30°F , -1°C
Humidity: 18%
Barometer: 29.97 inHg , 1014.9 hPa
Clouds: Partly cloudy
Visibility: 10 miles , 16 km
Cloud details: Few Clouds 10000 ft
Partly cloudy 12000 ft
2018/06/19 00:31 KENV 190031Z AUTO 29016G23KT 10SM FEW100 SCT120 25/M01 A2997 RMK AO2 WSHFT 0006
KPUC - Price, Utah, USA
Distance from station: SE 123mi, 197km
Updated: Mon, 18-Jun-2018 5:53pm MDT
Clear
Clear
 Wind from SSW
Wind: SSW 13 mph , 20 km/h
Temperature: 79°F , 26°C
Dew Point: 25°F , -4°C
Humidity: 13%
Barometer: 29.99 inHg , 1015.6 hPa
Clouds: Clear
Visibility: 10 miles , 16 km
2018/06/18 23:53 KPUC 182353Z AUTO 21011KT 10SM CLR 26/M04 A2999 RMK AO2 SLP077 T02561044 10278 20222 58008
 
KPIH - Pocatello, Idaho, USA
Distance from station: NNW 130mi, 208km
Updated: Mon, 18-Jun-2018 5:53pm MDT
Mostly cloudy
Mostly cloudy
 Wind from SW
Wind: SW 15 mph , 24 km/h, Gust: 23 mph , 37 km/h
Temperature: 66°F , 19°C
Dew Point: 39°F , 4°C
Humidity: 37%
Barometer: 30.06 inHg , 1017.9 hPa
Clouds: Mostly cloudy
Visibility: 10 miles , 16 km
Cloud details: Few Clouds 6000 ft
Mostly cloudy 11000 ft
2018/06/18 23:53 KPIH 182353Z 23013G20KT 10SM FEW060 BKN110 19/04 A3006 RMK AO2 SLP152 60001 T01890044 10200 20117 55001
KBYI - Burley, Idaho, USA
Distance from station: NW 134mi, 216km
Updated: Mon, 18-Jun-2018 5:53pm MDT
Light rain, Overcast
Light rain, Overcast
 Wind from SW
Wind: SW 8 mph , 13 km/h
Temperature: 59°F , 15°C
Dew Point: 48°F , 9°C
Humidity: 68%
Barometer: 30.06 inHg , 1017.9 hPa
Summary: Light rain
Clouds: Overcast
Visibility: 10 miles , 16 km
Cloud details: Mostly cloudy 7000 ft
Overcast 9000 ft
2018/06/18 23:53 KBYI 182353Z AUTO 23007KT 10SM -RA BKN070 OVC090 15/09 A3006 RMK AO2 RAB47 SLP160 P0000 60011 T01500089 10189 20122 53009
 
KVEL - Vernal, Utah, USA
Distance from station: ESE 140mi, 226km
Updated: Mon, 18-Jun-2018 5:53pm MDT
Clear
Clear
 Wind from varies
Wind: varies 5 mph , 7 km/h
Temperature: 82°F , 28°C
Dew Point: 21°F , -6°C
Humidity: 10%
Barometer: 29.96 inHg , 1014.6 hPa
Clouds: Clear
Visibility: 10 miles , 16 km
2018/06/18 23:53 KVEL 182353Z AUTO VRB04KT 10SM CLR 28/M06 A2996 RMK AO2 SLP072 T02781056 10289 20233 56004
KBPI - Big Piney, Wyoming, USA
Distance from station: NE 145mi, 234km
Updated: Mon, 18-Jun-2018 5:53pm MDT
Clear
Clear
 Wind from NW
Wind: NW 10 mph , 17 km/h
Temperature: 59°F , 15°C
Dew Point: 37°F , 3°C
Humidity: 45%
Barometer: 30.15 inHg , 1021 hPa
Clouds: Clear
Visibility: 10 miles , 16 km
2018/06/18 23:53 KBPI 182353Z AUTO 31009KT 10SM CLR 15/03 A3015 RMK AO2 LTG DSNT NW SLP147 60001 T01500033 10167 20094 57000